Time;durP1;ratioP1;P1;durP2;ratioP2;P2;SDS_P1;SDS_P2;PMS_P1;PMS_P2;Temp;Humidity;BMP_temperature;BMP_pressure;BME280_temperature;BME280_humidity;BME280_pressure;Samples;Min_cycle;Max_cycle;Signal;HPM_P1;HPM_P2
2024/01/26 00:00:39;;;;;;;1.30;0.73;;;;;;;10.05;58.20;102239.09;5043470;28;20045;-39
2024/01/26 00:03:05;;;;;;;2.80;1.73;;;;;;;10.03;58.07;102246.16;5049661;28;20296;-38
2024/01/26 00:05:30;;;;;;;2.33;0.98;;;;;;;10.03;58.27;102246.16;5042136;28;20297;-38
2024/01/26 00:07:55;;;;;;;2.28;0.77;;;;;;;10.03;58.01;102246.16;5046930;28;20044;-36
2024/01/26 00:10:21;;;;;;;1.40;0.43;;;;;;;10.03;58.01;102246.16;5044276;28;20473;-39
2024/01/26 00:12:46;;;;;;;1.40;0.50;;;;;;;10.03;58.13;102256.69;5046304;28;20470;-39
2024/01/26 00:15:11;;;;;;;1.48;0.52;;;;;;;10.07;58.21;102258.28;5045977;28;20291;-40
2024/01/26 00:17:36;;;;;;;1.67;0.63;;;;;;;10.07;58.18;102258.28;5048877;28;20112;-40
2024/01/26 00:20:02;;;;;;;0.90;0.20;;;;;;;10.11;58.19;102253.81;5044772;28;20040;-38
2024/01/26 00:22:27;;;;;;;1.35;0.47;;;;;;;10.03;57.91;102255.81;5026314;28;20847;-39
2024/01/26 00:24:52;;;;;;;0.83;0.17;;;;;;;10.04;58.32;102249.66;5046484;28;20020;-39
2024/01/26 00:27:18;;;;;;;1.40;0.53;;;;;;;10.00;58.05;102246.25;5047258;28;20284;-38
2024/01/26 00:29:43;;;;;;;1.50;0.57;;;;;;;9.90;58.21;102239.56;5046721;28;20346;-37
2024/01/26 00:32:09;;;;;;;2.03;1.10;;;;;;;9.99;58.55;102239.28;5043979;28;20056;-38
2024/01/26 00:34:35;;;;;;;1.73;0.75;;;;;;;10.03;58.59;102247.91;5044669;28;20287;-37
2024/01/26 00:37:02;;;;;;;1.83;0.88;;;;;;;9.71;58.69;102245.38;5046879;28;20040;-36
2024/01/26 00:39:27;;;;;;;2.05;0.45;;;;;;;9.81;58.66;102250.34;5045271;28;20491;-36
2024/01/26 00:41:52;;;;;;;2.63;0.98;;;;;;;9.64;59.14;102254.34;5043150;28;20039;-39
2024/01/26 00:44:18;;;;;;;4.00;1.73;;;;;;;9.45;59.47;102248.78;5047881;28;20029;-35
2024/01/26 00:46:43;;;;;;;1.83;0.40;;;;;;;9.42;59.87;102247.09;5046871;28;20310;-39
2024/01/26 00:49:08;;;;;;;1.73;0.57;;;;;;;9.45;60.21;102254.88;5042620;28;20029;-40
2024/01/26 00:51:34;;;;;;;1.77;0.40;;;;;;;9.44;60.26;102247.94;5044077;28;20337;-37
2024/01/26 00:53:59;;;;;;;2.20;0.60;;;;;;;9.52;59.99;102241.56;5047675;28;20093;-38
2024/01/26 00:56:24;;;;;;;2.63;1.00;;;;;;;9.46;60.16;102253.97;5042971;28;20099;-36
2024/01/26 00:58:50;;;;;;;2.00;0.50;;;;;;;9.25;60.51;102247.56;5048020;28;20036;-38
2024/01/26 01:01:15;;;;;;;2.42;0.63;;;;;;;9.36;60.67;102255.16;5045709;28;20128;-38
2024/01/26 01:03:40;;;;;;;2.20;0.50;;;;;;;9.41;60.60;102250.63;5045163;28;20472;-37
2024/01/26 01:06:06;;;;;;;2.25;0.60;;;;;;;9.53;60.31;102248.56;5043650;28;20162;-39
2024/01/26 01:08:31;;;;;;;2.35;0.70;;;;;;;9.65;60.10;102242.09;5038282;28;20098;-38
2024/01/26 01:10:56;;;;;;;2.67;1.08;;;;;;;9.80;59.88;102240.75;5040111;28;20071;-36
2024/01/26 01:13:22;;;;;;;2.13;0.68;;;;;;;9.83;59.76;102235.41;5046522;28;20411;-38
2024/01/26 01:15:48;;;;;;;1.25;0.40;;;;;;;9.90;59.56;102236.94;5046715;28;20927;-38
2024/01/26 01:18:13;;;;;;;2.28;1.30;;;;;;;9.96;59.49;102239.38;5022178;28;20353;-38
2024/01/26 01:20:38;;;;;;;1.13;0.28;;;;;;;10.00;59.39;102243.63;5044519;28;20029;-39
2024/01/26 01:23:04;;;;;;;2.10;0.98;;;;;;;10.02;59.29;102233.94;5045178;28;20039;-36
2024/01/26 01:25:30;;;;;;;2.25;1.02;;;;;;;10.07;59.24;102225.88;5044478;28;20518;-38
2024/01/26 01:27:55;;;;;;;2.38;0.65;;;;;;;10.12;59.15;102221.34;5043099;28;20032;-38
2024/01/26 01:30:20;;;;;;;2.25;0.68;;;;;;;10.15;59.07;102228.28;5040464;28;20891;-37
2024/01/26 01:32:46;;;;;;;1.30;0.35;;;;;;;10.15;59.05;102223.00;5045527;28;20033;-38
2024/01/26 01:35:11;;;;;;;1.55;0.63;;;;;;;10.18;58.92;102222.91;5046240;28;20498;-38
2024/01/26 01:37:37;;;;;;;1.83;0.85;;;;;;;10.15;59.01;102221.22;5043161;28;20033;-40
2024/01/26 01:40:02;;;;;;;1.67;0.77;;;;;;;10.18;58.89;102218.50;5021422;28;20119;-38
2024/01/26 01:42:28;;;;;;;1.25;0.35;;;;;;;10.16;58.90;102222.09;5042572;28;20040;-38
2024/01/26 01:44:53;;;;;;;2.10;0.50;;;;;;;10.13;58.91;102220.44;5043702;28;20036;-39
2024/01/26 01:47:19;;;;;;;3.30;1.67;;;;;;;10.05;59.00;102222.44;5041911;28;20040;-36
2024/01/26 01:49:44;;;;;;;1.33;0.50;;;;;;;10.05;59.04;102219.81;5038990;28;20037;-41
2024/01/26 01:52:14;;;;;;;2.10;0.57;;;;;;;10.02;58.96;102207.63;5048058;28;20582;-37
2024/01/26 01:54:40;;;;;;;2.10;0.57;;;;;;;9.99;59.03;102206.84;5042776;28;20047;-36
2024/01/26 01:57:06;;;;;;;1.95;0.38;;;;;;;9.90;59.17;102214.13;5035443;28;20488;-39
2024/01/26 01:59:32;;;;;;;3.13;1.05;;;;;;;9.85;59.14;102213.41;5047106;28;20025;-38
2024/01/26 02:01:58;;;;;;;2.85;0.98;;;;;;;9.79;59.19;102218.00;5041195;28;20041;-36
2024/01/26 02:04:23;;;;;;;3.65;1.67;;;;;;;9.69;59.06;102213.03;5041796;28;20028;-41
2024/01/26 02:07:03;;;;;;;3.50;1.48;;;;;;;9.63;59.23;102213.19;5025881;28;20029;-42
2024/01/26 02:09:29;;;;;;;3.92;1.95;;;;;;;9.59;59.41;102219.47;5037886;28;20083;-38
2024/01/26 02:11:55;;;;;;;2.15;0.40;;;;;;;9.54;59.53;102210.84;5038861;28;20036;-34
2024/01/26 02:14:21;;;;;;;2.13;0.45;;;;;;;9.51;59.48;102221.44;5037886;28;20021;-39
2024/01/26 02:16:56;;;;;;;1.98;0.47;;;;;;;9.35;59.84;102229.78;5040775;28;20454;-42
2024/01/26 02:19:22;;;;;;;2.72;0.80;;;;;;;9.45;59.99;102231.22;5038739;28;20033;-37
2024/01/26 02:21:48;;;;;;;3.47;1.40;;;;;;;9.48;59.81;102221.53;5039688;28;20147;-38
2024/01/26 02:24:13;;;;;;;3.00;0.90;;;;;;;9.42;59.89;102217.34;5039321;28;20689;-37
2024/01/26 02:26:39;;;;;;;2.30;0.43;;;;;;;9.37;59.86;102225.34;5043832;28;20034;-38
2024/01/26 02:29:05;;;;;;;3.65;1.20;;;;;;;9.37;59.95;102212.22;5040760;28;20031;-38
2024/01/26 02:31:30;;;;;;;3.05;0.85;;;;;;;9.37;59.95;102204.34;5043536;28;20037;-37
2024/01/26 02:33:55;;;;;;;3.35;1.00;;;;;;;9.37;60.02;102208.75;5040489;28;20043;-39
2024/01/26 02:36:21;;;;;;;2.30;0.32;;;;;;;9.32;59.84;102210.63;5056552;28;20029;-39
2024/01/26 02:38:46;;;;;;;2.90;0.87;;;;;;;9.33;59.93;102221.09;5041834;28;20094;-39
2024/01/26 02:41:11;;;;;;;3.10;0.80;;;;;;;9.34;59.96;102214.06;5044661;28;20279;-39
2024/01/26 02:43:36;;;;;;;2.43;0.33;;;;;;;9.33;59.98;102207.94;5048016;28;20039;-39
2024/01/26 02:46:08;;;;;;;2.90;0.65;;;;;;;9.28;59.75;102212.50;5044797;28;20677;-39
2024/01/26 02:48:34;;;;;;;2.78;1.08;;;;;;;9.22;59.81;102212.66;5050017;28;20741;-39
2024/01/26 02:50:59;;;;;;;2.50;0.50;;;;;;;9.21;59.72;102213.56;5045905;28;20048;-39
2024/01/26 02:53:24;;;;;;;4.38;1.70;;;;;;;9.14;59.81;102216.38;5044658;28;20299;-38
2024/01/26 02:55:49;;;;;;;2.80;0.93;;;;;;;9.10;59.89;102212.09;5044378;28;20048;-39
2024/01/26 02:58:15;;;;;;;4.57;1.70;;;;;;;8.98;59.53;102209.81;5041627;28;20314;-39
2024/01/26 03:00:40;;;;;;;2.47;0.38;;;;;;;8.95;59.90;102205.50;5062624;28;20314;-38
2024/01/26 03:03:06;;;;;;;3.10;0.97;;;;;;;8.92;59.95;102199.47;5046363;28;20040;-38
2024/01/26 03:05:31;;;;;;;3.30;1.05;;;;;;;8.89;60.03;102194.31;5042036;28;20303;-39
2024/01/26 03:07:56;;;;;;;3.55;1.42;;;;;;;8.83;60.06;102201.47;5034282;28;20049;-39
2024/01/26 03:10:22;;;;;;;11.70;10.57;;;;;;;8.78;60.24;102205.97;5041561;28;20113;-39
2024/01/26 03:12:48;;;;;;;1.13;1.05;;;;;;;8.81;60.19;102198.03;5046044;28;20275;-39
2024/01/26 03:15:13;;;;;;;3.72;3.42;;;;;;;8.77;60.20;102203.41;5044348;28;20115;-39
2024/01/26 03:17:39;;;;;;;0.10;0.10;;;;;;;8.69;60.28;102195.72;5044916;28;20625;-39
2024/01/26 03:20:05;;;;;;;1.42;1.33;;;;;;;8.67;60.37;102189.66;5028509;28;20040;-39
2024/01/26 03:22:30;;;;;;;0.38;0.25;;;;;;;8.63;60.18;102196.72;5043571;28;20041;-38
2024/01/26 03:24:55;;;;;;;1.17;0.70;;;;;;;8.58;60.27;102187.25;5046801;28;20037;-39
2024/01/26 03:27:21;;;;;;;0.43;0.40;;;;;;;8.55;60.16;102190.81;5041958;28;20963;-39
2024/01/26 03:29:46;;;;;;;0.22;0.22;;;;;;;8.50;60.26;102188.34;5043730;28;20314;-39
2024/01/26 03:32:11;;;;;;;0.10;0.10;;;;;;;8.47;60.26;102185.75;5040993;28;21209;-39
2024/01/26 03:34:36;;;;;;;0.13;0.13;;;;;;;8.42;60.28;102185.00;5062486;28;20286;-38
2024/01/26 03:37:02;;;;;;;0.10;0.10;;;;;;;8.39;60.47;102177.22;5032458;28;20490;-39
2024/01/26 03:39:27;;;;;;;0.20;0.20;;;;;;;8.35;60.48;102180.81;5046513;28;20330;-39
2024/01/26 03:41:52;;;;;;;0.45;0.32;;;;;;;8.35;60.39;102170.31;5046559;28;20364;-39
2024/01/26 03:44:17;;;;;;;0.20;0.20;;;;;;;8.33;60.39;102177.38;5045078;28;20394;-38
2024/01/26 03:46:43;;;;;;;0.13;0.13;;;;;;;8.29;60.68;102180.97;5046616;28;20040;-39
2024/01/26 03:49:09;;;;;;;0.85;0.65;;;;;;;8.21;60.71;102171.53;5044553;28;20310;-38
2024/01/26 03:51:35;;;;;;;0.03;0.03;;;;;;;8.22;60.74;102170.66;5061809;28;20108;-38
2024/01/26 03:54:01;;;;;;;0.10;0.10;;;;;;;8.22;60.51;102175.88;5046289;28;20044;-38
2024/01/26 03:56:26;;;;;;;0.20;0.20;;;;;;;8.19;60.70;102167.22;5045474;28;20045;-40
2024/01/26 03:58:53;;;;;;;3.70;3.38;;;;;;;8.17;60.38;102172.50;5046786;28;20846;-39
2024/01/26 04:01:19;;;;;;;1.70;0.95;;;;;;;8.19;60.65;102169.84;5044629;28;21731;-39
2024/01/26 04:03:44;;;;;;;0.57;0.32;;;;;;;8.15;60.74;102160.34;5040452;28;20033;-38
2024/01/26 04:06:09;;;;;;;0.63;0.43;;;;;;;8.09;60.55;102170.06;5042881;28;20021;-38
2024/01/26 04:08:34;;;;;;;0.60;0.25;;;;;;;8.13;60.81;102160.38;5045596;28;20036;-38
2024/01/26 04:11:00;;;;;;;0.77;0.43;;;;;;;8.09;60.89;102153.50;5045979;28;20400;-39
2024/01/26 04:13:25;;;;;;;2.33;2.20;;;;;;;8.07;60.67;102140.41;5043784;28;20032;-38
2024/01/26 04:15:50;;;;;;;0.65;0.28;;;;;;;8.04;60.85;102139.63;5047564;28;20295;-40
2024/01/26 04:18:15;;;;;;;0.73;0.60;;;;;;;8.00;60.83;102137.97;5043258;28;20036;-36
2024/01/26 04:20:41;;;;;;;0.98;0.98;;;;;;;7.96;60.76;102144.19;5058263;28;20287;-39
2024/01/26 04:23:06;;;;;;;0.52;0.35;;;;;;;7.93;60.90;102140.75;5041681;28;20048;-37
2024/01/26 04:25:31;;;;;;;0.10;0.10;;;;;;;7.91;60.99;102147.81;5049143;28;20040;-38
2024/01/26 04:27:56;;;;;;;0.10;0.10;;;;;;;7.97;60.82;102132.78;5043020;28;20275;-38
2024/01/26 04:30:22;;;;;;;0.10;0.10;;;;;;;7.92;61.12;102123.31;5025230;28;20369;-39
2024/01/26 04:32:48;;;;;;;0.10;0.10;;;;;;;7.89;60.93;102119.88;5046496;28;20040;-37
2024/01/26 04:35:13;;;;;;;0.10;0.10;;;;;;;7.90;60.82;102127.72;5043116;28;20032;-42
2024/01/26 04:37:38;;;;;;;0.10;0.10;;;;;;;7.86;61.11;102125.22;5043807;28;20099;-39
2024/01/26 04:40:04;;;;;;;0.10;0.10;;;;;;;7.86;60.99;102125.22;5058066;28;20381;-36
2024/01/26 04:42:30;;;;;;;0.77;0.77;;;;;;;7.86;61.00;102120.81;5037394;28;20033;-38
2024/01/26 04:44:56;;;;;;;0.00;0.00;;;;;;;7.85;61.07;102121.72;5040464;28;20041;-38
2024/01/26 04:47:21;;;;;;;0.10;0.10;;;;;;;7.81;60.96;102117.44;5045518;28;20044;-38
2024/01/26 04:49:47;;;;;;;0.03;0.03;;;;;;;7.77;61.32;102110.59;5026228;28;20110;-37
2024/01/26 04:52:13;;;;;;;0.10;0.10;;;;;;;7.76;61.40;102114.09;5044451;28;20290;-42
2024/01/26 04:54:38;;;;;;;0.10;0.10;;;;;;;7.84;61.42;102122.63;5042320;28;20295;-38
2024/01/26 04:57:04;;;;;;;0.10;0.10;;;;;;;7.79;61.49;102108.75;5043311;28;20031;-37
2024/01/26 04:59:31;;;;;;;0.10;0.10;;;;;;;7.81;61.14;102103.50;5038170;28;20031;-45
2024/01/26 05:01:57;;;;;;;0.10;0.10;;;;;;;7.77;61.24;102105.34;5041050;28;20093;-43
2024/01/26 05:04:22;;;;;;;0.10;0.10;;;;;;;7.81;61.32;102106.13;5044784;28;20025;-44
2024/01/26 05:06:47;;;;;;;0.10;0.10;;;;;;;7.74;61.29;102100.16;5046398;28;20032;-47
2024/01/26 05:09:14;;;;;;;0.20;0.20;;;;;;;7.68;61.42;102095.94;5046661;28;20040;-43
2024/01/26 05:11:39;;;;;;;0.10;0.10;;;;;;;7.70;61.49;102099.38;5040704;28;20061;-44
2024/01/26 05:14:05;;;;;;;0.05;0.05;;;;;;;7.65;61.46;102089.88;5040329;28;20134;-44
2024/01/26 05:16:31;;;;;;;0.13;0.13;;;;;;;7.65;61.16;102080.28;5044569;28;20036;-44
2024/01/26 05:18:56;;;;;;;0.10;0.10;;;;;;;7.57;60.96;102083.09;5043737;28;20041;-44
2024/01/26 05:21:22;;;;;;;0.20;0.20;;;;;;;7.62;61.27;102083.84;5046013;28;20033;-44
2024/01/26 05:23:47;;;;;;;0.20;0.20;;;;;;;7.54;61.17;102077.91;5044560;28;20041;-44
2024/01/26 05:26:12;;;;;;;0.15;0.13;;;;;;;7.49;61.35;102074.53;5043705;28;20189;-44
2024/01/26 05:28:37;;;;;;;0.20;0.20;;;;;;;7.51;61.28;102067.50;5042000;28;20048;-44
2024/01/26 05:31:03;;;;;;;0.13;0.13;;;;;;;7.54;61.63;102071.81;5047070;28;20037;-44
2024/01/26 05:33:29;;;;;;;0.35;0.32;;;;;;;7.52;61.48;102064.00;5039290;28;20033;-45
2024/01/26 05:35:54;;;;;;;0.20;0.20;;;;;;;7.50;61.36;102065.78;5045720;28;20039;-46
2024/01/26 05:38:19;;;;;;;0.10;0.10;;;;;;;7.48;61.42;102062.34;5041347;28;20399;-47
2024/01/26 05:40:45;;;;;;;0.57;0.52;;;;;;;7.48;61.56;102062.34;5045046;28;20280;-46
2024/01/26 05:43:12;;;;;;;0.55;0.50;;;;;;;7.49;61.49;102056.19;5043191;28;20693;-44
2024/01/26 05:45:37;;;;;;;0.82;0.52;;;;;;;7.46;61.61;102065.00;5030086;28;20049;-44
2024/01/26 05:48:03;;;;;;;0.85;0.60;;;;;;;7.47;61.54;102060.63;5039496;28;20531;-44
2024/01/26 05:50:28;;;;;;;0.30;0.20;;;;;;;7.49;61.78;102061.44;5043254;28;20149;-46
2024/01/26 05:52:54;;;;;;;0.40;0.28;;;;;;;7.54;61.88;102059.56;5042691;28;20131;-45
2024/01/26 05:55:20;;;;;;;0.95;0.57;;;;;;;7.56;61.84;102044.69;5041848;28;20039;-44
2024/01/26 05:57:45;;;;;;;1.65;1.20;;;;;;;7.55;61.42;102032.50;5044650;28;20557;-44
2024/01/26 06:00:11;;;;;;;2.38;1.38;;;;;;;7.59;61.54;102042.00;5044818;28;20400;-44
2024/01/26 06:02:36;;;;;;;1.08;0.63;;;;;;;7.57;61.78;102045.53;5045197;28;20033;-47
2024/01/26 06:05:01;;;;;;;0.23;0.20;;;;;;;7.65;61.75;102055.81;5044189;28;20395;-39
2024/01/26 06:07:26;;;;;;;1.02;0.93;;;;;;;7.67;61.39;102046.19;5036667;28;20282;-39
2024/01/26 06:09:52;;;;;;;1.63;1.52;;;;;;;7.66;61.40;102033.97;5042568;28;20086;-38
2024/01/26 06:12:17;;;;;;;0.30;0.30;;;;;;;7.66;61.53;102034.84;5038046;28;20064;-42
2024/01/26 06:14:42;;;;;;;0.10;0.10;;;;;;;7.62;61.42;102028.84;5050306;28;20534;-39
2024/01/26 06:17:07;;;;;;;0.35;0.32;;;;;;;7.68;61.61;102032.19;5051577;28;20275;-41
2024/01/26 06:19:33;;;;;;;0.20;0.20;;;;;;;7.71;61.67;102032.13;5053413;28;20033;-40
2024/01/26 06:21:59;;;;;;;0.13;0.13;;;;;;;7.73;61.51;102036.41;5046589;28;20291;-40
2024/01/26 06:24:24;;;;;;;0.28;0.28;;;;;;;7.77;61.85;102040.69;5045753;28;20399;-46
2024/01/26 06:26:49;;;;;;;0.52;0.52;;;;;;;7.84;61.74;102040.53;5049922;28;20044;-43
2024/01/26 06:29:15;;;;;;;0.30;0.30;;;;;;;7.83;61.47;102042.28;5048279;28;20068;-45
2024/01/26 06:31:40;;;;;;;0.50;0.50;;;;;;;7.86;61.38;102030.88;5048684;28;20032;-46
2024/01/26 06:34:05;;;;;;;0.40;0.40;;;;;;;7.89;61.77;102036.91;5050523;28;20044;-46
2024/01/26 06:36:31;;;;;;;2.05;1.95;;;;;;;7.92;61.71;102031.56;5047971;28;20028;-45
2024/01/26 06:38:56;;;;;;;0.38;0.30;;;;;;;7.91;61.08;102023.72;5048986;28;20044;-45
2024/01/26 06:41:21;;;;;;;0.50;0.50;;;;;;;7.92;61.73;102031.56;5051243;28;20037;-46
2024/01/26 06:43:50;;;;;;;1.13;0.67;;;;;;;7.93;61.51;102028.06;5047023;28;20661;-43
2024/01/26 06:46:18;;;;;;;1.23;0.57;;;;;;;8.00;61.79;102025.25;5046142;28;20276;-44
2024/01/26 06:48:44;;;;;;;0.98;0.52;;;;;;;7.99;61.53;102023.53;5042092;28;20040;-43
2024/01/26 06:51:09;;;;;;;1.45;1.33;;;;;;;7.95;61.13;102020.13;5044798;28;20024;-46
2024/01/26 06:53:35;;;;;;;2.22;1.17;;;;;;;8.00;61.57;102022.63;5048478;28;20029;-45
2024/01/26 06:56:00;;;;;;;1.45;1.05;;;;;;;8.01;61.11;102024.34;5029594;28;20057;-43
2024/01/26 06:58:26;;;;;;;1.50;1.45;;;;;;;8.04;61.83;102019.88;5026930;28;20049;-46
2024/01/26 07:00:52;;;;;;;1.63;1.10;;;;;;;8.07;61.54;102005.84;5037742;28;20048;-42
2024/01/26 07:03:18;;;;;;;0.98;0.35;;;;;;;8.12;61.47;102001.34;5042865;28;20086;-45
2024/01/26 07:05:43;;;;;;;1.35;0.77;;;;;;;8.14;61.55;101996.91;5043128;28;20037;-43
2024/01/26 07:08:09;;;;;;;0.82;0.22;;;;;;;8.12;61.69;101996.09;5045753;28;20044;-43
2024/01/26 07:10:34;;;;;;;1.33;0.68;;;;;;;8.20;61.83;101988.88;5047022;28;20498;-44
2024/01/26 07:13:00;;;;;;;1.00;0.45;;;;;;;8.23;61.35;101974.81;5050045;28;20024;-44
2024/01/26 07:15:25;;;;;;;1.08;0.38;;;;;;;8.26;61.34;101971.25;5050136;28;20032;-43
2024/01/26 07:17:50;;;;;;;1.13;0.50;;;;;;;8.27;61.52;101965.09;5040682;28;20032;-44
2024/01/26 07:20:16;;;;;;;1.30;0.65;;;;;;;8.26;61.47;101971.25;5047516;28;20041;-44
2024/01/26 07:22:42;;;;;;;1.17;0.50;;;;;;;8.25;61.38;101965.16;5036852;28;20748;-44
2024/01/26 07:25:11;;;;;;;0.80;0.25;;;;;;;8.30;61.66;101962.41;5041322;28;20079;-43
2024/01/26 07:27:38;;;;;;;1.10;0.47;;;;;;;8.32;61.43;101971.09;5044233;28;20033;-44
2024/01/26 07:30:05;;;;;;;0.98;0.40;;;;;;;8.34;61.72;101964.88;5027660;28;20031;-47
2024/01/26 07:32:31;;;;;;;1.48;0.98;;;;;;;8.39;61.81;101956.91;5044057;28;20029;-45
2024/01/26 07:34:56;;;;;;;1.23;0.65;;;;;;;8.45;61.62;101951.47;5041811;28;20052;-46
2024/01/26 07:37:22;;;;;;;1.30;0.60;;;;;;;8.47;61.49;101956.69;5044447;28;20033;-45
2024/01/26 07:39:47;;;;;;;1.10;0.50;;;;;;;8.49;61.53;101966.25;5041011;28;20881;-45
2024/01/26 07:42:12;;;;;;;1.10;0.45;;;;;;;8.55;61.67;101952.09;5051639;28;20315;-45
2024/01/26 07:44:37;;;;;;;1.10;0.43;;;;;;;8.53;61.62;101944.28;5047040;28;20048;-45
2024/01/26 07:47:03;;;;;;;1.80;0.68;;;;;;;8.55;61.44;101952.09;5046411;28;20021;-45
2024/01/26 07:49:28;;;;;;;2.83;1.27;;;;;;;8.59;61.65;101942.34;5046166;28;20033;-44
2024/01/26 07:51:53;;;;;;;1.70;0.50;;;;;;;8.62;61.55;101944.88;5041217;28;20047;-45
2024/01/26 07:54:19;;;;;;;2.42;0.75;;;;;;;8.65;61.47;101935.16;5046097;28;20295;-45
2024/01/26 07:56:44;;;;;;;2.22;0.73;;;;;;;8.69;61.31;101938.56;5044043;28;20033;-46
2024/01/26 07:59:10;;;;;;;1.63;0.28;;;;;;;8.74;61.29;101934.00;5042050;28;20060;-45
2024/01/26 08:01:35;;;;;;;1.97;0.50;;;;;;;8.77;61.57;101926.03;5052174;28;20505;-47
2024/01/26 08:04:00;;;;;;;1.83;0.47;;;;;;;8.82;61.67;101912.78;5048177;28;20287;-46
2024/01/26 08:06:25;;;;;;;2.45;0.85;;;;;;;8.83;61.32;101904.88;5048122;28;20551;-45
2024/01/26 08:08:51;;;;;;;2.03;0.37;;;;;;;8.85;61.16;101903.03;5048151;28;20025;-46
2024/01/26 08:11:19;;;;;;;10.07;9.05;;;;;;;8.89;61.17;101897.69;5047908;28;20283;-46
2024/01/26 08:13:45;;;;;;;0.25;0.25;;;;;;;8.93;61.43;101891.44;5045857;28;20033;-46
2024/01/26 08:16:16;;;;;;;1.08;1.08;;;;;;;8.93;61.11;101886.19;5050179;28;20082;-44
2024/01/26 08:18:42;;;;;;;2.58;2.35;;;;;;;8.98;61.39;101871.16;5042750;28;20163;-46
2024/01/26 08:21:08;;;;;;;3.75;3.45;;;;;;;9.06;61.11;101869.13;5050226;28;20048;-45
2024/01/26 08:23:33;;;;;;;0.77;0.77;;;;;;;9.06;61.34;101863.03;5052542;28;20094;-46
2024/01/26 08:25:58;;;;;;;3.93;3.63;;;;;;;9.09;61.06;101858.53;5047397;28;20029;-43
2024/01/26 08:28:24;;;;;;;4.87;4.57;;;;;;;9.07;60.78;101851.63;5048767;28;20286;-43
2024/01/26 08:30:49;;;;;;;2.73;2.53;;;;;;;9.12;61.13;101845.28;5047417;28;20750;-44
2024/01/26 08:33:14;;;;;;;1.25;1.20;;;;;;;9.12;60.95;101845.28;5047435;28;20399;-43
2024/01/26 08:35:40;;;;;;;1.35;1.27;;;;;;;9.17;61.07;101837.25;5048085;28;22333;-43
2024/01/26 08:38:05;;;;;;;1.95;1.83;;;;;;;9.22;61.07;101821.34;5049892;28;20115;-44
2024/01/26 08:40:30;;;;;;;5.70;3.97;;;;;;;9.27;60.92;101806.28;5050578;28;20106;-43
2024/01/26 08:42:56;;;;;;;0.52;0.20;;;;;;;9.32;60.92;101791.19;5046241;28;20043;-43
2024/01/26 08:45:21;;;;;;;0.10;0.10;;;;;;;9.36;60.93;101787.56;5047889;28;20110;-44
2024/01/26 08:47:46;;;;;;;0.10;0.10;;;;;;;9.41;60.88;101796.13;5046128;28;20036;-44
2024/01/26 08:50:12;;;;;;;0.13;0.13;;;;;;;9.49;61.17;101802.88;5046895;28;20040;-46
2024/01/26 08:52:37;;;;;;;0.10;0.10;;;;;;;9.53;60.66;101793.97;5045360;28;20450;-39
2024/01/26 08:55:03;;;;;;;0.10;0.10;;;;;;;9.53;60.71;101788.72;5046652;28;20738;-40
2024/01/26 08:57:29;;;;;;;0.10;0.10;;;;;;;9.53;60.33;101791.34;5039571;28;20036;-40
2024/01/26 08:59:54;;;;;;;0.10;0.10;;;;;;;9.53;60.17;101789.56;5029197;28;20033;-40
2024/01/26 09:02:20;;;;;;;0.00;0.00;;;;;;;9.57;60.29;101779.81;5030421;28;20609;-40
2024/01/26 09:04:46;;;;;;;0.08;0.08;;;;;;;9.64;60.22;101775.19;5023803;28;20064;-40
2024/01/26 09:07:12;;;;;;;0.10;0.10;;;;;;;9.64;59.95;101776.03;5028820;28;20495;-41
2024/01/26 09:09:38;;;;;;;0.13;0.13;;;;;;;9.64;59.61;101776.03;5047451;28;20044;-39
2024/01/26 09:12:04;;;;;;;6.07;5.60;;;;;;;9.67;59.62;101778.56;5051345;28;20021;-39
2024/01/26 09:14:29;;;;;;;0.52;0.43;;;;;;;9.72;59.90;101767.88;5044989;28;20029;-39
2024/01/26 09:16:54;;;;;;;0.10;0.10;;;;;;;9.73;59.48;101769.56;5047022;28;20122;-39
2024/01/26 09:19:20;;;;;;;0.10;0.10;;;;;;;9.75;59.51;101763.38;5050435;28;20090;-39
2024/01/26 09:21:46;;;;;;;0.00;0.00;;;;;;;9.68;58.86;101755.78;5044410;28;20287;-39
2024/01/26 09:24:12;;;;;;;0.10;0.10;;;;;;;9.60;58.11;101748.19;5049945;28;20501;-39
2024/01/26 09:26:39;;;;;;;0.10;0.10;;;;;;;9.61;58.43;101745.47;5049166;28;20025;-39
2024/01/26 09:29:04;;;;;;;0.10;0.10;;;;;;;9.61;58.73;101734.97;5065914;28;20471;-39
2024/01/26 09:31:30;;;;;;;0.10;0.10;;;;;;;9.54;58.19;101727.38;5051257;28;20035;-39
2024/01/26 09:33:55;;;;;;;0.10;0.10;;;;;;;9.58;58.51;101726.34;5042118;28;20049;-39
2024/01/26 09:36:20;;;;;;;0.10;0.10;;;;;;;9.56;58.25;101721.13;5048986;28;20666;-39
2024/01/26 09:38:46;;;;;;;0.10;0.10;;;;;;;9.64;58.85;101712.97;5046041;28;20114;-39
2024/01/26 09:41:11;;;;;;;0.10;0.10;;;;;;;9.62;58.33;101720.03;5052437;28;20318;-39
2024/01/26 09:43:36;;;;;;;2.33;1.77;;;;;;;9.63;58.24;101721.75;5040855;28;20404;-39
2024/01/26 09:46:04;;;;;;;0.10;0.10;;;;;;;9.69;58.98;101704.91;5052270;28;20037;-39
2024/01/26 09:48:32;;;;;;;0.10;0.10;;;;;;;9.73;58.89;101686.34;5054261;28;20396;-39
2024/01/26 09:50:58;;;;;;;3.67;3.33;;;;;;;9.79;58.62;101679.13;5051245;28;20480;-39
2024/01/26 09:53:24;;;;;;;2.45;2.25;;;;;;;9.90;59.20;101676.94;5056307;28;20039;-38
2024/01/26 09:55:51;;;;;;;0.10;0.10;;;;;;;9.99;58.98;101666.03;5053902;28;20028;-39
2024/01/26 09:58:16;;;;;;;0.10;0.10;;;;;;;10.04;58.87;101647.44;5049441;28;20074;-39
2024/01/26 10:00:46;;;;;;;0.10;0.10;;;;;;;10.07;58.82;101632.38;5052158;28;20095;-38
2024/01/26 10:03:12;;;;;;;0.13;0.13;;;;;;;10.14;58.95;101632.16;5053193;28;20056;-39
2024/01/26 10:05:37;;;;;;;0.10;0.10;;;;;;;10.25;59.16;101626.44;5050412;28;20471;-39
2024/01/26 10:08:10;;;;;;;0.30;0.30;;;;;;;10.29;58.51;101612.22;5052812;28;20039;-39
2024/01/26 10:10:35;;;;;;;0.10;0.10;;;;;;;10.31;58.30;101613.00;5052165;28;20400;-39
2024/01/26 10:13:03;;;;;;;0.10;0.10;;;;;;;10.34;58.51;101605.88;5053242;28;20040;-39
2024/01/26 10:15:29;;;;;;;0.00;0.00;;;;;;;10.36;58.18;101593.47;5050797;28;20032;-38
2024/01/26 10:17:54;;;;;;;0.00;0.00;;;;;;;10.42;58.04;101584.50;5053209;28;20412;-39
2024/01/26 10:20:20;;;;;;;0.10;0.10;;;;;;;10.45;58.02;101600.16;5055578;28;20440;-38
2024/01/26 10:22:46;;;;;;;0.08;0.08;;;;;;;10.47;57.73;101597.47;5053491;28;20649;-39
2024/01/26 10:25:13;;;;;;;0.10;0.10;;;;;;;10.49;57.96;101585.09;5053917;28;20055;-39
2024/01/26 10:27:39;;;;;;;0.22;0.22;;;;;;;10.57;58.37;101585.59;5052449;28;20106;-38
2024/01/26 10:30:05;;;;;;;1.15;0.90;;;;;;;10.53;57.90;101578.75;5055996;28;20410;-40
2024/01/26 10:32:31;;;;;;;0.70;0.30;;;;;;;10.54;57.46;101572.56;5049145;28;20032;-38
2024/01/26 10:34:59;;;;;;;1.42;0.70;;;;;;;10.63;58.24;101561.66;5053916;28;20024;-42
2024/01/26 10:37:28;;;;;;;0.05;0.05;;;;;;;10.61;57.41;101568.75;5055139;28;20064;-38
2024/01/26 10:39:55;;;;;;;0.00;0.00;;;;;;;10.57;57.51;101561.06;5054810;28;20033;-39
2024/01/26 10:42:21;;;;;;;0.20;0.20;;;;;;;10.54;57.06;101567.31;5004055;28;20044;-40
2024/01/26 10:44:51;;;;;;;0.10;0.10;;;;;;;10.48;57.31;101564.97;5044928;28;20037;-38
2024/01/26 10:47:17;;;;;;;0.10;0.10;;;;;;;10.41;57.11;101566.16;5049293;28;20118;-38
2024/01/26 10:49:49;;;;;;;0.10;0.10;;;;;;;10.27;56.88;101562.31;5049280;28;20064;-39
2024/01/26 10:52:22;;;;;;;0.00;0.00;;;;;;;10.26;57.07;101546.59;5051180;28;20043;-37
2024/01/26 10:54:47;;;;;;;;;;;;;;;10.27;57.40;101532.53;5044910;28;20097;-37
2024/01/26 10:57:13;;;;;;;0.10;0.10;;;;;;;10.31;57.79;101519.19;5043312;28;19924;-38
2024/01/26 10:59:40;;;;;;;0.10;0.10;;;;;;;10.31;57.41;101527.06;5048430;28;20064;-38
2024/01/26 11:02:10;;;;;;;0.10;0.10;;;;;;;10.24;57.36;101512.47;5045569;28;20041;-38
2024/01/26 11:04:35;;;;;;;0.00;0.00;;;;;;;10.18;57.37;101510.97;5049024;28;20080;-37
2024/01/26 11:07:01;;;;;;;0.65;0.65;;;;;;;10.16;57.45;101509.34;5035762;28;20420;-41
2024/01/26 11:09:32;;;;;;;0.10;0.10;;;;;;;10.29;58.09;101494.72;5047373;28;20040;-38
2024/01/26 11:11:58;;;;;;;0.00;0.00;;;;;;;10.40;58.32;101465.34;5041929;28;20801;-39
2024/01/26 11:14:27;;;;;;;0.10;0.10;;;;;;;10.45;57.39;101473.00;5043484;28;20161;-38
2024/01/26 11:16:52;;;;;;;0.10;0.10;;;;;;;10.47;57.74;101464.09;5045236;28;20079;-39
2024/01/26 11:19:22;;;;;;;0.10;0.10;;;;;;;10.49;57.63;101462.28;5048188;28;20037;-38
2024/01/26 11:21:47;;;;;;;0.00;0.00;;;;;;;10.52;57.94;101469.16;5037843;28;20037;-38
2024/01/26 11:24:17;;;;;;;0.10;0.10;;;;;;;10.37;57.43;101463.63;5050880;28;20036;-39